Time;durP1;ratioP1;P1;durP2;ratioP2;P2;SDS_P1;SDS_P2;PMS_P1;PMS_P2;Temp;Humidity;BMP_temperature;BMP_pressure;BME280_temperature;BME280_humidity;BME280_pressure;Samples;Min_cycle;Max_cycle;Signal;HPM_P1;HPM_P2
2022/03/13 00:00:47;;;;;;;5.80;3.08;;;-3.20;65.20;;;;;;5030421;28;20605;-68
2022/03/13 00:03:15;;;;;;;6.18;3.17;;;-3.30;65.40;;;;;;5027606;28;20037;-68
2022/03/13 00:05:46;;;;;;;8.02;4.68;;;-3.30;67.10;;;;;;5025719;28;20410;-68
2022/03/13 00:08:23;;;;;;;9.80;3.90;;;-3.20;66.50;;;;;;5003534;28;20116;-68
2022/03/13 00:10:56;;;;;;;7.72;3.47;;;-3.10;66.40;;;;;;5018597;28;20084;-68
2022/03/13 00:13:31;;;;;;;5.88;3.33;;;-3.10;65.80;;;;;;5018677;28;20033;-68
2022/03/13 00:16:08;;;;;;;6.13;3.30;;;-3.10;66.00;;;;;;5017465;28;20498;-68
2022/03/13 00:18:35;;;;;;;5.68;3.33;;;-3.10;65.40;;;;;;5033884;28;20060;-68
2022/03/13 00:21:04;;;;;;;6.30;3.42;;;-3.10;66.10;;;;;;5041002;28;20168;-68
2022/03/13 00:23:34;;;;;;;4.82;2.88;;;-3.10;67.20;;;;;;5039095;28;20040;-68
2022/03/13 00:26:01;;;;;;;4.00;2.58;;;-3.20;67.30;;;;;;5036254;28;20382;-68
2022/03/13 00:28:27;;;;;;;6.07;3.03;;;-3.30;65.80;;;;;;5052436;28;20083;-68
2022/03/13 00:30:53;;;;;;;3.90;2.50;;;-3.50;66.10;;;;;;5044780;28;20048;-68
2022/03/13 00:33:20;;;;;;;4.50;3.15;;;-3.50;68.00;;;;;;5042161;28;20127;-68
2022/03/13 00:35:46;;;;;;;6.45;3.53;;;-3.50;69.00;;;;;;5035587;28;20045;-68
2022/03/13 00:38:11;;;;;;;4.57;3.60;;;-3.40;68.30;;;;;;5032232;28;20039;-68
2022/03/13 00:40:37;;;;;;;7.70;3.80;;;-3.30;67.40;;;;;;5038825;28;20045;-69
2022/03/13 00:43:04;;;;;;;5.65;3.60;;;-3.10;67.00;;;;;;5033531;28;20698;-68
2022/03/13 00:45:30;;;;;;;10.80;5.75;;;-3.00;67.60;;;;;;5036052;28;20095;-68
2022/03/13 00:47:57;;;;;;;13.48;6.28;;;-3.10;67.60;;;;;;5035253;28;20033;-67
2022/03/13 00:50:23;;;;;;;10.93;7.05;;;-3.00;66.80;;;;;;5038068;28;20033;-67
2022/03/13 00:52:49;;;;;;;16.98;8.57;;;-2.90;66.70;;;;;;5038404;28;20041;-70
2022/03/13 00:55:14;;;;;;;4.97;3.50;;;-2.80;66.70;;;;;;5037715;28;20605;-68
2022/03/13 00:57:43;;;;;;;4.95;3.20;;;-2.90;67.20;;;;;;5039713;28;20044;-68
2022/03/13 01:00:13;;;;;;;4.43;2.75;;;-3.10;68.00;;;;;;5039222;28;20083;-68
2022/03/13 01:02:39;;;;;;;4.25;2.63;;;-3.20;67.60;;;;;;5035446;28;20036;-67
2022/03/13 01:05:09;;;;;;;5.53;2.53;;;-3.30;67.60;;;;;;5038385;28;20058;-65
2022/03/13 01:07:35;;;;;;;7.78;2.97;;;-3.50;69.80;;;;;;5037382;28;20095;-65
2022/03/13 01:10:01;;;;;;;6.35;2.47;;;-3.70;70.30;;;;;;5038861;28;20060;-65
2022/03/13 01:12:27;;;;;;;3.85;2.60;;;-3.80;71.10;;;;;;5034667;28;20040;-65
2022/03/13 01:14:53;;;;;;;5.65;2.70;;;-3.80;71.80;;;;;;5039498;28;20040;-65
2022/03/13 01:17:20;;;;;;;6.60;2.90;;;-3.90;72.30;;;;;;5046554;28;20091;-65
2022/03/13 01:19:47;;;;;;;4.78;2.72;;;-3.80;72.30;;;;;;5016705;28;20117;-65
2022/03/13 01:22:12;;;;;;;6.75;2.97;;;-3.70;73.20;;;;;;5020242;28;20037;-65
2022/03/13 01:24:44;;;;;;;8.10;3.88;;;-3.70;72.50;;;;;;5014702;28;20033;-65
2022/03/13 01:27:11;;;;;;;6.05;3.00;;;-3.70;72.40;;;;;;5028384;28;20049;-65
2022/03/13 01:29:37;;;;;;;5.55;3.63;;;-3.60;72.00;;;;;;5024858;28;20038;-65
2022/03/13 01:32:03;;;;;;;6.43;3.63;;;-3.60;71.10;;;;;;5030293;28;20060;-65
2022/03/13 01:34:35;;;;;;;9.75;5.32;;;-3.60;70.50;;;;;;5028528;28;20128;-65
2022/03/13 01:37:01;;;;;;;5.30;3.13;;;-3.70;70.60;;;;;;5029769;28;20068;-65
2022/03/13 01:39:28;;;;;;;5.47;4.05;;;-3.70;71.30;;;;;;5024285;28;20045;-65
2022/03/13 01:41:53;;;;;;;6.03;3.63;;;-3.70;71.00;;;;;;5027508;28;20040;-65
2022/03/13 01:44:20;;;;;;;9.30;4.05;;;-3.70;71.90;;;;;;5029238;28;20037;-65
2022/03/13 01:46:46;;;;;;;10.02;3.58;;;-3.70;71.10;;;;;;5030875;28;20048;-66
2022/03/13 01:49:12;;;;;;;8.70;4.57;;;-3.80;71.00;;;;;;5029443;28;20032;-65
2022/03/13 01:51:38;;;;;;;6.68;4.35;;;-3.70;71.50;;;;;;5030643;28;20538;-65
2022/03/13 01:54:10;;;;;;;11.18;5.15;;;-3.70;71.10;;;;;;5029325;28;20037;-65
2022/03/13 01:56:37;;;;;;;4.90;2.55;;;-3.70;71.60;;;;;;5026735;28;20172;-65
2022/03/13 01:59:04;;;;;;;5.05;2.55;;;-3.60;71.50;;;;;;5019462;28;20034;-65
2022/03/13 02:01:30;;;;;;;2.85;2.45;;;-3.70;70.50;;;;;;5017331;28;20079;-65
2022/03/13 02:03:56;;;;;;;4.88;2.50;;;-3.90;71.50;;;;;;5016859;28;24132;-65
2022/03/13 02:06:26;;;;;;;3.88;2.72;;;-4.00;72.70;;;;;;5016713;28;20064;-66
2022/03/13 02:08:54;;;;;;;4.55;2.42;;;-4.00;73.00;;;;;;5021250;28;20044;-65
2022/03/13 02:11:23;;;;;;;2.95;2.42;;;-4.00;71.90;;;;;;5019500;28;20495;-65
2022/03/13 02:13:51;;;;;;;4.40;2.60;;;-4.10;71.50;;;;;;5018123;28;20041;-65
2022/03/13 02:16:18;;;;;;;4.15;2.58;;;-4.20;71.20;;;;;;5018364;28;20085;-65
2022/03/13 02:18:52;;;;;;;3.28;2.55;;;-4.20;71.70;;;;;;5032825;28;20032;-65
2022/03/13 02:21:22;;;;;;;4.53;2.58;;;-4.30;72.50;;;;;;5038450;28;20033;-65
2022/03/13 02:23:48;;;;;;;4.93;2.58;;;-4.30;73.80;;;;;;5039035;28;20082;-65
2022/03/13 02:26:14;;;;;;;8.48;3.65;;;-4.30;73.60;;;;;;5041147;28;20135;-65
2022/03/13 02:28:52;;;;;;;6.00;3.17;;;-4.30;72.90;;;;;;5037963;28;20472;-65
2022/03/13 02:31:28;;;;;;;7.78;4.38;;;-4.30;72.70;;;;;;5040411;28;20059;-78
2022/03/13 02:33:55;;;;;;;6.40;3.65;;;-4.20;72.90;;;;;;5038585;28;20052;-78
2022/03/13 02:36:34;;;;;;;5.72;2.95;;;-4.20;73.30;;;;;;5040321;28;20127;-78
2022/03/13 02:39:01;;;;;;;4.80;2.65;;;-4.30;73.20;;;;;;5041045;28;20111;-77
2022/03/13 02:41:27;;;;;;;4.28;2.63;;;-4.30;72.70;;;;;;5042057;28;20047;-78
2022/03/13 02:43:53;;;;;;;6.45;3.08;;;-4.40;73.30;;;;;;5048865;28;20108;-77
2022/03/13 02:46:21;;;;;;;7.20;3.25;;;-4.40;73.60;;;;;;5048819;28;20123;-65
2022/03/13 02:48:48;;;;;;;8.80;3.63;;;-4.40;74.60;;;;;;5047713;28;20036;-65
2022/03/13 02:51:14;;;;;;;5.93;3.03;;;-4.40;74.70;;;;;;5049249;28;20107;-79
2022/03/13 02:53:40;;;;;;;5.90;3.47;;;-4.30;75.10;;;;;;5051034;28;20043;-78
2022/03/13 02:56:07;;;;;;;4.50;2.75;;;-4.30;75.00;;;;;;5044156;28;20080;-78
2022/03/13 02:58:34;;;;;;;6.15;2.88;;;-4.30;75.60;;;;;;5037293;28;20043;-78
2022/03/13 03:01:00;;;;;;;3.90;2.88;;;-4.40;75.60;;;;;;5030826;28;20032;-78
2022/03/13 03:03:26;;;;;;;5.18;3.40;;;-4.40;75.60;;;;;;5032021;28;20029;-78
2022/03/13 03:05:53;;;;;;;5.40;3.08;;;-4.40;75.60;;;;;;5015568;28;20040;-80
2022/03/13 03:08:19;;;;;;;5.28;3.28;;;-4.40;74.50;;;;;;5032300;28;20048;-65
2022/03/13 03:10:45;;;;;;;4.47;3.15;;;-4.60;75.10;;;;;;5034672;28;20040;-65
2022/03/13 03:13:13;;;;;;;5.28;3.13;;;-4.60;76.30;;;;;;5033174;28;20057;-65
2022/03/13 03:15:39;;;;;;;4.63;3.00;;;-4.50;75.60;;;;;;5037879;28;20045;-65
2022/03/13 03:18:07;;;;;;;5.03;3.42;;;-4.50;75.70;;;;;;5030312;28;20071;-65
2022/03/13 03:20:34;;;;;;;6.07;3.70;;;-4.40;74.80;;;;;;5015365;28;20056;-65
2022/03/13 03:23:00;;;;;;;8.88;3.05;;;-4.30;74.20;;;;;;5013342;28;20029;-65
2022/03/13 03:25:27;;;;;;;5.72;2.78;;;-4.20;74.10;;;;;;5018090;28;20758;-65
2022/03/13 03:27:55;;;;;;;7.20;2.83;;;-4.20;73.20;;;;;;5013615;28;20040;-65
2022/03/13 03:30:24;;;;;;;7.57;2.78;;;-4.30;73.60;;;;;;5019098;28;20037;-65
2022/03/13 03:32:50;;;;;;;7.60;3.10;;;-4.50;74.40;;;;;;5017485;28;20107;-65
2022/03/13 03:35:17;;;;;;;8.27;3.20;;;-4.50;75.20;;;;;;5018437;28;20033;-65
2022/03/13 03:37:43;;;;;;;8.45;4.00;;;-4.50;75.60;;;;;;5018331;28;20532;-65
2022/03/13 03:40:10;;;;;;;6.00;3.63;;;-4.30;75.30;;;;;;5019657;28;20037;-65
2022/03/13 03:42:36;;;;;;;8.88;3.95;;;-4.20;75.90;;;;;;5018620;28;20049;-65
2022/03/13 03:45:02;;;;;;;10.00;4.85;;;-4.10;75.30;;;;;;5019745;28;20029;-65
2022/03/13 03:47:28;;;;;;;4.70;2.92;;;-4.10;74.60;;;;;;5029404;28;20646;-79
2022/03/13 03:49:54;;;;;;;6.22;2.72;;;-4.10;74.80;;;;;;5028805;28;20037;-78
2022/03/13 03:52:19;;;;;;;4.68;2.65;;;-4.30;73.50;;;;;;5029719;28;20041;-78
2022/03/13 03:54:45;;;;;;;4.03;2.70;;;-4.40;73.50;;;;;;5031177;28;20096;-78
2022/03/13 03:57:11;;;;;;;4.97;3.38;;;-4.50;74.00;;;;;;5031494;28;20066;-78
2022/03/13 03:59:36;;;;;;;5.30;2.88;;;-4.70;74.50;;;;;;5028953;28;20030;-78
2022/03/13 04:02:02;;;;;;;4.90;2.67;;;-4.80;75.20;;;;;;5027668;28;20045;-77
2022/03/13 04:04:28;;;;;;;3.88;2.60;;;-4.90;75.10;;;;;;5031874;28;20570;-78
2022/03/13 04:06:54;;;;;;;4.10;2.70;;;-4.90;76.50;;;;;;5015061;28;20054;-65
2022/03/13 04:09:19;;;;;;;7.18;3.50;;;-4.90;76.80;;;;;;5025287;28;20045;-65
2022/03/13 04:11:46;;;;;;;6.03;4.03;;;-4.80;77.00;;;;;;5025846;28;20033;-65
2022/03/13 04:14:13;;;;;;;9.57;5.78;;;-4.70;76.20;;;;;;5028857;28;20040;-65
2022/03/13 04:16:38;;;;;;;13.93;5.15;;;-4.60;75.50;;;;;;5029641;28;22168;-65
2022/03/13 04:19:04;;;;;;;10.65;5.82;;;-4.40;74.80;;;;;;5036888;28;20991;-65
2022/03/13 04:21:30;;;;;;;13.98;6.40;;;-4.30;74.40;;;;;;5042042;28;21112;-65
2022/03/13 04:23:55;;;;;;;4.75;3.50;;;-4.20;74.30;;;;;;5041459;28;21246;-65
2022/03/13 04:26:25;;;;;;;6.32;3.20;;;-4.20;74.30;;;;;;5040449;28;20049;-65
2022/03/13 04:28:50;;;;;;;5.78;3.33;;;-4.40;74.30;;;;;;5038742;28;20053;-65
2022/03/13 04:31:18;;;;;;;5.63;3.53;;;-4.70;75.30;;;;;;5038387;28;20509;-65
2022/03/13 04:33:44;;;;;;;6.50;2.95;;;-4.80;76.40;;;;;;5040387;28;20037;-65
2022/03/13 04:36:14;;;;;;;5.70;3.00;;;-4.90;77.40;;;;;;5040180;28;20352;-65
2022/03/13 04:38:42;;;;;;;6.35;3.20;;;-4.90;76.90;;;;;;5038330;28;20559;-65
2022/03/13 04:41:09;;;;;;;5.28;3.45;;;-4.90;78.20;;;;;;5039600;28;20044;-65
2022/03/13 04:43:35;;;;;;;6.82;3.72;;;-4.90;77.20;;;;;;5041474;28;20029;-65
2022/03/13 04:46:01;;;;;;;6.72;3.72;;;-4.80;77.60;;;;;;5039323;28;20037;-65
2022/03/13 04:48:27;;;;;;;4.45;3.25;;;-4.80;77.10;;;;;;5035570;28;20033;-65
2022/03/13 04:50:53;;;;;;;5.80;3.63;;;-4.90;77.80;;;;;;5039159;28;20046;-65
2022/03/13 04:53:18;;;;;;;5.93;3.72;;;-4.80;78.00;;;;;;5037200;28;20045;-65
2022/03/13 04:55:44;;;;;;;6.57;3.42;;;-4.80;77.30;;;;;;5040663;28;20177;-64
2022/03/13 04:58:10;;;;;;;6.22;3.70;;;-4.80;77.50;;;;;;5038939;28;20063;-64
2022/03/13 05:00:38;;;;;;;7.18;3.65;;;-4.80;77.90;;;;;;5041546;28;20535;-64
2022/03/13 05:03:06;;;;;;;5.25;3.28;;;-4.80;78.80;;;;;;5037797;28;20045;-63
2022/03/13 05:05:34;;;;;;;5.50;3.10;;;-4.80;78.00;;;;;;5039691;28;20039;-64
2022/03/13 05:08:01;;;;;;;6.35;3.60;;;-4.90;78.50;;;;;;5039175;28;20386;-63
2022/03/13 05:10:36;;;;;;;6.05;3.38;;;-4.80;79.10;;;;;;5043237;28;20029;-63
2022/03/13 05:13:05;;;;;;;8.50;4.07;;;-4.80;78.90;;;;;;5037214;28;20064;-64
2022/03/13 05:15:32;;;;;;;7.47;3.97;;;-4.80;78.30;;;;;;5040224;28;20037;-64
2022/03/13 05:17:57;;;;;;;5.43;3.53;;;-4.90;76.80;;;;;;5039632;28;20056;-63
2022/03/13 05:20:23;;;;;;;9.25;4.47;;;-5.00;76.90;;;;;;5038113;28;20507;-64
2022/03/13 05:22:48;;;;;;;8.40;4.03;;;-5.10;76.20;;;;;;5039328;28;20418;-63
2022/03/13 05:25:14;;;;;;;7.05;4.20;;;-5.30;76.70;;;;;;5040593;28;20486;-64
2022/03/13 05:27:40;;;;;;;9.15;5.10;;;-5.30;78.20;;;;;;5051079;28;20040;-63
2022/03/13 05:30:08;;;;;;;14.40;5.53;;;-5.20;78.50;;;;;;5048508;28;20037;-63
2022/03/13 05:32:35;;;;;;;8.90;4.97;;;-5.10;78.20;;;;;;5047029;28;20626;-66
2022/03/13 05:35:02;;;;;;;11.55;6.88;;;-4.90;77.90;;;;;;5029852;28;20106;-64
2022/03/13 05:37:28;;;;;;;13.18;7.65;;;-4.70;77.00;;;;;;5048760;28;20131;-64
2022/03/13 05:39:53;;;;;;;11.90;6.75;;;-4.50;75.80;;;;;;5053349;28;20519;-64
2022/03/13 05:42:23;;;;;;;11.65;7.10;;;-4.40;75.90;;;;;;5047377;28;20037;-64
2022/03/13 05:44:49;;;;;;;17.77;10.07;;;-4.20;75.30;;;;;;5053195;28;20033;-64
2022/03/13 05:47:15;;;;;;;14.85;10.32;;;-3.90;75.30;;;;;;5046415;28;20055;-64
2022/03/13 05:49:40;;;;;;;17.27;10.00;;;-3.70;75.10;;;;;;5053275;28;20045;-64
2022/03/13 05:52:07;;;;;;;14.90;10.90;;;-3.40;74.80;;;;;;5047560;28;20124;-65
2022/03/13 05:54:33;;;;;;;18.75;11.05;;;-3.20;73.80;;;;;;5049433;28;20028;-65
2022/03/13 05:57:00;;;;;;;18.70;11.52;;;-2.90;73.20;;;;;;5048666;28;20060;-78
2022/03/13 05:59:26;;;;;;;18.85;9.82;;;-2.70;72.70;;;;;;5048149;28;20069;-78
2022/03/13 06:01:51;;;;;;;19.65;12.00;;;-2.60;72.40;;;;;;5038219;28;20131;-64
2022/03/13 06:04:17;;;;;;;17.83;12.07;;;-2.80;73.80;;;;;;5035115;28;20059;-64
2022/03/13 06:06:44;;;;;;;19.50;11.52;;;-2.90;75.00;;;;;;5039828;28;20489;-64
2022/03/13 06:09:09;;;;;;;16.23;11.45;;;-2.90;75.60;;;;;;5044094;28;20017;-67
2022/03/13 06:11:35;;;;;;;16.55;10.95;;;-2.70;76.00;;;;;;5035535;28;20044;-67
2022/03/13 06:14:01;;;;;;;21.98;13.38;;;-2.60;75.50;;;;;;5044897;28;20036;-67
2022/03/13 06:16:26;;;;;;;17.23;11.00;;;-2.30;75.20;;;;;;5041853;28;20154;-67
2022/03/13 06:18:52;;;;;;;15.48;10.32;;;-2.00;76.70;;;;;;5039964;28;20146;-76
2022/03/13 06:21:18;;;;;;;16.15;10.48;;;-1.70;74.90;;;;;;5038537;28;20219;-78
2022/03/13 06:23:43;;;;;;;12.13;9.05;;;-1.50;72.90;;;;;;5008777;28;20049;-76
2022/03/13 06:26:09;;;;;;;12.32;7.35;;;-1.30;73.20;;;;;;5038009;28;20048;-78
2022/03/13 06:28:36;;;;;;;11.60;7.72;;;-1.10;72.40;;;;;;5015697;28;20061;-76
2022/03/13 06:31:01;;;;;;;12.90;7.53;;;-1.00;72.00;;;;;;5043631;28;20105;-79
2022/03/13 06:33:28;;;;;;;10.43;6.47;;;-1.10;72.80;;;;;;5019235;28;20456;-79
2022/03/13 06:35:54;;;;;;;11.68;6.28;;;-1.10;72.30;;;;;;5043147;28;20045;-79
2022/03/13 06:38:19;;;;;;;12.68;6.82;;;-1.00;71.30;;;;;;5038362;28;20052;-69
2022/03/13 06:40:45;;;;;;;11.23;7.22;;;-1.00;71.50;;;;;;5033290;28;20111;-67
2022/03/13 06:43:11;;;;;;;12.15;6.57;;;-1.00;70.60;;;;;;5034455;28;20941;-67
2022/03/13 06:45:36;;;;;;;9.68;5.90;;;-0.90;70.30;;;;;;5032971;28;20037;-67
2022/03/13 06:48:02;;;;;;;9.70;6.22;;;-0.80;68.80;;;;;;5035580;28;20519;-67
2022/03/13 06:50:28;;;;;;;8.30;5.47;;;-0.60;68.60;;;;;;5034477;28;20056;-69
2022/03/13 06:52:54;;;;;;;12.45;6.18;;;-0.60;68.40;;;;;;5032238;28;20112;-66
2022/03/13 06:55:22;;;;;;;10.23;6.18;;;-0.40;67.50;;;;;;5035724;28;20150;-69
2022/03/13 06:57:47;;;;;;;9.63;5.85;;;-0.30;68.10;;;;;;5035060;28;20064;-69
2022/03/13 07:00:15;;;;;;;9.27;5.72;;;-0.30;67.20;;;;;;5021525;28;20119;-69
2022/03/13 07:02:41;;;;;;;10.40;5.97;;;-0.20;67.30;;;;;;5034930;28;21568;-69
2022/03/13 07:05:08;;;;;;;10.95;5.93;;;0.00;67.10;;;;;;5039480;28;20432;-70
2022/03/13 07:07:33;;;;;;;8.32;5.32;;;0.20;65.60;;;;;;5036379;28;20572;-69
2022/03/13 07:09:59;;;;;;;9.55;5.38;;;0.50;64.40;;;;;;5033381;28;20037;-68
2022/03/13 07:12:25;;;;;;;7.95;5.10;;;0.80;63.30;;;;;;5040055;28;20124;-69
2022/03/13 07:14:52;;;;;;;9.50;4.93;;;1.00;62.90;;;;;;5042455;28;20064;-70
2022/03/13 07:17:18;;;;;;;8.25;4.90;;;1.20;62.20;;;;;;5041920;28;20130;-70
2022/03/13 07:19:45;;;;;;;9.45;5.40;;;1.50;60.10;;;;;;5035401;28;20135;-69
2022/03/13 07:22:12;;;;;;;10.02;5.40;;;1.70;59.30;;;;;;5036285;28;20320;-69
2022/03/13 07:24:39;;;;;;;10.75;5.47;;;1.90;58.50;;;;;;5039700;28;20036;-69
2022/03/13 07:27:05;;;;;;;8.77;5.15;;;2.10;56.80;;;;;;5043843;28;20037;-70
2022/03/13 07:29:31;;;;;;;7.72;5.35;;;2.30;56.50;;;;;;5033617;28;20033;-71
2022/03/13 07:31:56;;;;;;;7.13;4.85;;;2.50;55.00;;;;;;5037103;28;20077;-71
2022/03/13 07:34:26;;;;;;;7.10;5.07;;;2.70;53.40;;;;;;5035405;28;20039;-71
2022/03/13 07:36:52;;;;;;;8.73;4.75;;;2.80;53.10;;;;;;5038958;28;20057;-70
2022/03/13 07:39:19;;;;;;;10.45;4.97;;;3.10;51.80;;;;;;5032534;28;20029;-73
2022/03/13 07:41:45;;;;;;;6.97;4.50;;;3.10;51.70;;;;;;5033740;28;20135;-69
2022/03/13 07:44:11;;;;;;;7.13;4.55;;;3.40;51.80;;;;;;5037610;28;20799;-71
2022/03/13 07:46:37;;;;;;;7.65;5.10;;;3.70;51.50;;;;;;5037486;28;20630;-71
2022/03/13 07:49:03;;;;;;;9.93;4.88;;;4.00;50.00;;;;;;5044072;28;20033;-71
2022/03/13 07:51:29;;;;;;;5.93;4.47;;;4.10;48.40;;;;;;5046682;28;20516;-71
2022/03/13 07:53:55;;;;;;;23.02;5.18;;;4.10;48.40;;;;;;5030467;28;20042;-71
2022/03/13 07:56:22;;;;;;;11.27;4.63;;;4.30;49.30;;;;;;5033616;28;20504;-77
2022/03/13 07:58:48;;;;;;;7.68;4.28;;;4.60;48.00;;;;;;5051525;28;20037;-76
2022/03/13 08:01:14;;;;;;;12.27;4.85;;;4.70;47.10;;;;;;5043706;28;20047;-77
2022/03/13 08:03:44;;;;;;;6.15;4.40;;;4.70;47.60;;;;;;5044870;28;20659;-78
2022/03/13 08:06:10;;;;;;;8.13;4.60;;;5.10;47.50;;;;;;5048855;28;20049;-79
2022/03/13 08:08:36;;;;;;;7.93;4.85;;;5.20;47.90;;;;;;5049365;28;20035;-83
2022/03/13 08:11:02;;;;;;;6.40;4.78;;;5.40;47.20;;;;;;5043541;28;20033;-84
2022/03/13 08:13:28;;;;;;;6.78;4.95;;;5.40;46.40;;;;;;5027146;28;20512;-82
2022/03/13 08:15:53;;;;;;;9.65;5.28;;;5.40;46.90;;;;;;5045126;28;20524;-79
2022/03/13 08:18:19;;;;;;;8.25;4.93;;;5.50;47.20;;;;;;5041616;28;20544;-82
2022/03/13 08:20:45;;;;;;;7.68;4.97;;;5.80;46.80;;;;;;5038697;28;20146;-80
2022/03/13 08:23:11;;;;;;;9.20;5.38;;;6.00;46.70;;;;;;5035212;28;20037;-78
2022/03/13 08:25:36;;;;;;;8.65;5.55;;;6.30;46.00;;;;;;5034300;28;20043;-77
2022/03/13 08:28:02;;;;;;;9.23;4.80;;;6.40;45.90;;;;;;5040534;28;20040;-79
2022/03/13 08:30:28;;;;;;;7.95;4.32;;;6.60;46.20;;;;;;5035502;28;20063;-79
2022/03/13 08:32:54;;;;;;;5.93;4.93;;;6.90;44.60;;;;;;5034472;28;20114;-74
2022/03/13 08:35:20;;;;;;;31.23;5.30;;;7.10;42.50;;;;;;5038880;28;20076;-69
2022/03/13 08:37:45;;;;;;;8.07;4.40;;;7.20;42.00;;;;;;5036237;28;20049;-73
2022/03/13 08:40:12;;;;;;;7.18;4.95;;;7.30;40.60;;;;;;5038489;28;20044;-74
2022/03/13 08:42:37;;;;;;;10.73;4.80;;;7.40;41.20;;;;;;5037132;28;20037;-73
2022/03/13 08:45:04;;;;;;;11.15;4.72;;;7.50;41.40;;;;;;5032266;28;20287;-74
2022/03/13 08:47:30;;;;;;;8.45;5.50;;;7.60;39.50;;;;;;5038302;28;20109;-72
2022/03/13 08:49:56;;;;;;;14.15;4.45;;;7.50;38.30;;;;;;5036244;28;20277;-72
2022/03/13 08:52:22;;;;;;;8.18;5.28;;;7.50;40.40;;;;;;5018953;28;20491;-71
2022/03/13 08:54:49;;;;;;;7.47;5.25;;;7.60;40.10;;;;;;5037703;28;20059;-71
2022/03/13 08:57:14;;;;;;;7.97;5.07;;;7.60;38.70;;;;;;5039113;28;20053;-71
2022/03/13 08:59:41;;;;;;;6.65;5.00;;;7.60;38.00;;;;;;5040435;28;20040;-72
2022/03/13 09:02:06;;;;;;;7.68;5.35;;;7.50;37.70;;;;;;5037745;28;20065;-72
2022/03/13 09:04:32;;;;;;;7.93;5.70;;;7.50;36.60;;;;;;5021291;28;20133;-72
2022/03/13 09:06:58;;;;;;;8.00;5.70;;;7.40;36.40;;;;;;5039895;28;20029;-72
2022/03/13 09:09:24;;;;;;;9.85;5.57;;;7.40;38.00;;;;;;5033782;28;20197;-72
2022/03/13 09:11:51;;;;;;;10.15;5.00;;;7.50;38.00;;;;;;5036942;28;20077;-75
2022/03/13 09:14:18;;;;;;;8.80;4.95;;;7.70;37.10;;;;;;5040811;28;20128;-78
2022/03/13 09:16:45;;;;;;;7.55;4.93;;;7.70;35.70;;;;;;5041587;28;20136;-65
2022/03/13 09:19:12;;;;;;;6.15;4.75;;;7.70;36.50;;;;;;5036479;28;20083;-66
2022/03/13 09:21:38;;;;;;;9.25;5.38;;;7.80;36.20;;;;;;5035587;28;20048;-65
2022/03/13 09:24:13;;;;;;;8.38;5.10;;;8.10;35.60;;;;;;5037802;28;20485;-66
2022/03/13 09:26:42;;;;;;;6.75;4.50;;;8.10;33.10;;;;;;5044719;28;20060;-64
2022/03/13 09:29:08;;;;;;;6.18;4.80;;;8.30;33.10;;;;;;5048888;28;20055;-65
2022/03/13 09:31:34;;;;;;;5.65;4.20;;;8.50;34.00;;;;;;5044569;28;20259;-68
2022/03/13 09:33:59;;;;;;;6.53;4.57;;;8.60;31.90;;;;;;5048859;28;20059;-67
2022/03/13 09:36:25;;;;;;;6.00;3.75;;;8.80;32.00;;;;;;5043181;28;20044;-67
2022/03/13 09:38:52;;;;;;;6.60;3.60;;;9.00;30.00;;;;;;5046232;28;20043;-68
2022/03/13 09:41:18;;;;;;;6.68;3.97;;;9.00;31.40;;;;;;5047249;28;20036;-68
2022/03/13 09:43:44;;;;;;;8.10;3.42;;;9.10;30.10;;;;;;5046441;28;20033;-67
2022/03/13 09:46:10;;;;;;;8.57;3.80;;;9.30;30.00;;;;;;5046755;28;20029;-66
2022/03/13 09:48:36;;;;;;;12.32;3.67;;;9.40;29.30;;;;;;5042826;28;20033;-67
2022/03/13 09:51:07;;;;;;;8.40;4.07;;;9.40;28.80;;;;;;5047938;28;20212;-67
2022/03/13 09:53:34;;;;;;;7.85;3.95;;;9.30;28.00;;;;;;5038853;28;20039;-67
2022/03/13 09:56:01;;;;;;;6.78;4.22;;;9.30;28.50;;;;;;5049026;28;20180;-69
2022/03/13 09:58:28;;;;;;;5.55;3.83;;;9.30;28.80;;;;;;5035047;28;20041;-67
2022/03/13 10:00:54;;;;;;;6.10;3.92;;;9.30;28.30;;;;;;5039325;28;20761;-68
2022/03/13 10:03:20;;;;;;;7.75;3.80;;;9.30;27.70;;;;;;5032630;28;20076;-69
2022/03/13 10:05:50;;;;;;;6.03;3.72;;;9.30;28.50;;;;;;5038690;28;20171;-67
2022/03/13 10:08:17;;;;;;;4.32;3.38;;;9.40;27.60;;;;;;5032739;28;20068;-67
2022/03/13 10:10:48;;;;;;;4.63;3.15;;;9.30;27.20;;;;;;5032493;28;20032;-68
2022/03/13 10:13:16;;;;;;;4.80;3.30;;;9.40;27.00;;;;;;5035947;28;20036;-66
2022/03/13 10:15:48;;;;;;;6.57;4.00;;;9.40;27.90;;;;;;5037167;28;20036;-63
2022/03/13 10:18:23;;;;;;;6.90;6.18;;;9.60;27.80;;;;;;5028960;28;20080;-66
2022/03/13 10:20:50;;;;;;;6.22;4.70;;;9.90;28.10;;;;;;5019015;28;20061;-64
2022/03/13 10:23:17;;;;;;;41.92;26.70;;;10.00;27.30;;;;;;5022177;28;22454;-66
2022/03/13 10:25:44;;;;;;;5.60;4.30;;;10.00;26.70;;;;;;5017321;28;20038;-65
2022/03/13 10:28:31;;;;;;;5.78;3.78;;;10.00;26.90;;;;;;5014137;28;20077;-65
2022/03/13 10:30:59;;;;;;;7.15;3.40;;;10.00;26.50;;;;;;5018635;28;20103;-64
2022/03/13 10:33:35;;;;;;;5.65;3.20;;;10.10;26.20;;;;;;5018909;28;20048;-64
2022/03/13 10:36:14;;;;;;;5.57;3.63;;;10.30;26.80;;;;;;5022693;28;20065;-65
2022/03/13 10:38:41;;;;;;;7.82;3.47;;;10.40;25.90;;;;;;5022133;28;20049;-65
2022/03/13 10:41:10;;;;;;;6.95;5.28;;;10.40;25.90;;;;;;5018781;28;20053;-65
2022/03/13 10:43:51;;;;;;;4.28;3.45;;;10.60;26.00;;;;;;5012941;28;20041;-65
2022/03/13 10:46:31;;;;;;;5.28;3.33;;;10.70;25.60;;;;;;5016797;28;20032;-65
2022/03/13 10:48:59;;;;;;;6.00;3.42;;;10.60;25.30;;;;;;5017384;28;20076;-64
2022/03/13 10:51:48;;;;;;;4.63;3.65;;;10.50;25.10;;;;;;5020371;28;20044;-65
2022/03/13 10:54:28;;;;;;;5.43;3.30;;;10.40;25.90;;;;;;5018316;28;20120;-65
2022/03/13 10:57:11;;;;;;;5.55;3.55;;;10.70;25.90;;;;;;5016630;28;20041;-65
2022/03/13 10:59:41;;;;;;;5.97;3.50;;;10.90;25.40;;;;;;5017827;28;20494;-65
2022/03/13 11:02:22;;;;;;;6.03;4.00;;;11.00;25.90;;;;;;5016266;28;20049;-64
2022/03/13 11:04:57;;;;;;;10.63;4.07;;;11.10;25.70;;;;;;5010712;28;20064;-65
2022/03/13 11:07:26;;;;;;;7.75;4.97;;;11.20;25.90;;;;;;5013635;28;20038;-70
2022/03/13 11:09:54;;;;;;;9.43;4.20;;;11.20;25.90;;;;;;5019572;28;20530;-69
2022/03/13 11:12:20;;;;;;;5.53;3.88;;;11.20;24.90;;;;;;5017199;28;20482;-71
2022/03/13 11:14:52;;;;;;;7.60;4.00;;;11.10;25.00;;;;;;5017989;28;20053;-70
2022/03/13 11:17:28;;;;;;;;;;;11.10;25.20;;;;;;5022901;28;20498;-70
2022/03/13 11:19:56;;;;;;;5.30;3.63;;;11.10;25.70;;;;;;5036925;28;19925;-70
2022/03/13 11:22:22;;;;;;;5.25;3.60;;;11.30;25.40;;;;;;5037793;28;20966;-70
2022/03/13 11:24:53;;;;;;;6.15;3.95;;;11.40;25.70;;;;;;5039490;28;20527;-70
2022/03/13 11:27:20;;;;;;;4.47;3.78;;;11.50;25.30;;;;;;5044295;28;20068;-70
2022/03/13 11:29:53;;;;;;;8.07;3.53;;;11.50;24.80;;;;;;5048802;28;20327;-70
2022/03/13 11:32:38;;;;;;;26.40;5.05;;;11.50;25.50;;;;;;5050276;28;20028;-71
2022/03/13 11:35:10;;;;;;;5.43;3.50;;;11.70;26.00;;;;;;5046688;28;20048;-71
2022/03/13 11:37:36;;;;;;;8.75;4.05;;;12.00;25.40;;;;;;5050715;28;20164;-72
2022/03/13 11:40:04;;;;;;;6.68;4.07;;;12.00;25.30;;;;;;5042159;28;20513;-71
2022/03/13 11:42:50;;;;;;;3.90;3.08;;;11.90;25.10;;;;;;5046982;28;20037;-71
2022/03/13 11:45:28;;;;;;;4.68;3.30;;;11.90;25.30;;;;;;5045879;28;20076;-71
2022/03/13 11:48:08;;;;;;;12.60;5.78;;;11.90;24.80;;;;;;5051655;28;20056;-71
2022/03/13 11:51:00;;;;;;;12.50;7.00;;;11.90;24.90;;;;;;5054465;28;20523;-72
2022/03/13 11:53:32;;;;;;;6.07;3.88;;;11.90;24.50;;;;;;5048162;28;20036;-71
2022/03/13 11:55:58;;;;;;;7.47;5.15;;;12.00;24.70;;;;;;5056099;28;20033;-72
2022/03/13 11:58:51;;;;;;;7.75;4.40;;;12.00;24.40;;;;;;5056125;28;20047;-71
2022/03/13 12:01:20;;;;;;;5.22;4.00;;;11.90;24.70;;;;;;5052195;28;20473;-70
2022/03/13 12:04:03;;;;;;;4.95;3.60;;;12.00;24.20;;;;;;5056065;28;20115;-71
2022/03/13 12:06:43;;;;;;;9.57;3.72;;;12.10;24.70;;;;;;5052019;28;20037;-72
2022/03/13 12:09:29;;;;;;;4.70;3.60;;;12.40;24.30;;;;;;5056180;28;20065;-71
2022/03/13 12:12:09;;;;;;;6.90;3.40;;;12.40;24.10;;;;;;5043669;28;20153;-71
2022/03/13 12:15:01;;;;;;;7.57;3.70;;;12.40;23.20;;;;;;5053405;28;20051;-71
2022/03/13 12:17:43;;;;;;;4.40;3.63;;;12.10;23.60;;;;;;5053886;28;20045;-71
2022/03/13 12:20:21;;;;;;;3.92;3.35;;;12.00;24.20;;;;;;5055290;28;20286;-71
2022/03/13 12:22:53;;;;;;;4.75;3.20;;;12.10;23.70;;;;;;5058512;28;20025;-71
2022/03/13 12:25:22;;;;;;;5.38;3.10;;;12.10;23.70;;;;;;5050888;28;20052;-71
2022/03/13 12:27:48;;;;;;;4.90;3.50;;;12.30;23.70;;;;;;5052369;28;20052;-71
2022/03/13 12:30:30;;;;;;;4.28;3.20;;;12.30;23.10;;;;;;5051256;28;20357;-71
2022/03/13 12:33:00;;;;;;;4.82;2.90;;;12.20;22.60;;;;;;5055148;28;20020;-71
2022/03/13 12:35:26;;;;;;;3.90;2.95;;;12.00;22.50;;;;;;5050828;28;20110;-71
2022/03/13 12:38:02;;;;;;;5.13;3.13;;;12.20;23.00;;;;;;5054969;28;20056;-70
2022/03/13 12:40:31;;;;;;;3.50;2.72;;;12.30;23.00;;;;;;5055571;28;20501;-80
2022/03/13 12:42:59;;;;;;;5.30;3.58;;;12.30;22.80;;;;;;5052551;28;20151;-81
2022/03/13 12:45:26;;;;;;;4.05;3.05;;;12.40;22.90;;;;;;5054579;28;20033;-81
2022/03/13 12:47:54;;;;;;;5.55;3.13;;;12.70;22.40;;;;;;5049770;28;20049;-81
2022/03/13 12:50:21;;;;;;;4.10;3.25;;;12.60;21.80;;;;;;5049824;28;20099;-81
2022/03/13 12:53:00;;;;;;;9.20;2.83;;;12.50;22.50;;;;;;5048411;28;20128;-81